»·PEaware :: XOJ551 KLAX-KSFO

XOJ551 :: KLAX-KSFO

FLIGHT INFORMATION

Flight Status: Arrived
Operator:
XOJET
More flights by this operator :: More flights under this callsign
Pilot: Hassan P. (16390)
Aircraft: BOMBARDIER BD-100 CHALLENGER 300
(CL30)
More flights by this aircraft type
Origin: KLAX Los Angeles Intl
United States
Destination: KSFO San Francisco Intl
United States
More flights between these airports :: More routes between these airports
Route: SUMMR1 STOKD SERFR SERFR3
File this flight plan on PilotEdge
Remarks: CORRECTION SERFR3 ,,,,,hope its a good day for you
Altitude:
(Current/Filed)
38,000ft
Speed:
(Current/Filed)
477kts
Departed: 03-May-18 02:16 PM
Arrived: 03-May-18 03:13 PM
Distance/Time
Traveled:
294nm/0:57
Distance/Time
To Go:
Arrived

Flight Plot

Page will automatically refresh every two minutes.

Flight plan parsing failed; only flown route is shown


Map Options




Map Legend


Flown Route
Filed Route
Departure Airport
Arrival Airport
Navaid (VOR, NDB)
Fix

Horizontal Profiles

Position Reports

Time Latitude Longitude Heading Altitude Ground
Speed
03-May-18 13:38 33.934052 -118.395492 170 109ft 0kts
03-May-18 13:39 33.934052 -118.395492 170 109ft 0kts
03-May-18 13:40 33.934052 -118.395492 170 109ft 0kts
03-May-18 13:41 33.934052 -118.395492 170 109ft 0kts
03-May-18 13:42 33.934052 -118.395492 170 109ft 0kts
03-May-18 13:43 33.934052 -118.395492 170 109ft 0kts
03-May-18 13:44 33.934052 -118.395492 170 109ft 0kts
03-May-18 13:46 33.934052 -118.395492 170 109ft 0kts
03-May-18 13:47 33.934053 -118.395493 170 109ft 0kts
03-May-18 13:48 33.934053 -118.395493 170 109ft 0kts
03-May-18 13:49 33.934053 -118.395493 170 109ft 0kts
03-May-18 13:50 33.934053 -118.395493 170 109ft 0kts
03-May-18 13:51 33.934053 -118.395493 170 109ft 0kts
03-May-18 13:52 33.934053 -118.395493 170 109ft 0kts
03-May-18 13:53 33.934053 -118.395493 170 109ft 0kts
03-May-18 13:54 33.934053 -118.395493 170 109ft 0kts
03-May-18 13:55 33.934053 -118.395493 170 109ft 0kts
03-May-18 13:56 33.934053 -118.395493 170 109ft 0kts
03-May-18 13:57 33.934053 -118.395493 170 109ft 0kts
03-May-18 13:58 33.934053 -118.395493 170 109ft 0kts
03-May-18 13:59 33.934053 -118.395493 171 109ft 0kts
03-May-18 14:00 33.934052 -118.395492 170 109ft 0kts
03-May-18 14:01 33.934052 -118.395492 170 109ft 0kts
03-May-18 14:02 33.934052 -118.395492 170 109ft 0kts
03-May-18 14:03 33.934052 -118.395492 170 109ft 0kts
03-May-18 14:04 33.934052 -118.395492 170 109ft 0kts
03-May-18 14:05 33.934052 -118.395492 170 109ft 0kts
03-May-18 14:06 33.934052 -118.395492 170 109ft 0kts
03-May-18 14:07 33.934052 -118.395492 170 109ft 0kts
03-May-18 14:08 33.934289 -118.395541 170 109ft 4kts
03-May-18 14:09 33.934006 -118.394282 59 109ft 11kts
03-May-18 14:10 33.935236 -118.391433 83 109ft 14kts
03-May-18 14:11 33.935639 -118.387492 83 109ft 9kts
03-May-18 14:12 33.935980 -118.384128 83 109ft 6kts
03-May-18 14:13 33.936042 -118.383565 82 109ft 0kts
03-May-18 14:14 33.936042 -118.383565 82 109ft 0kts
03-May-18 14:15 33.936108 -118.383147 67 109ft 6kts
03-May-18 14:16 33.936439 -118.391608 261 140ft 142kts
03-May-18 14:17 33.929852 -118.462644 267 3884ft 254kts
03-May-18 14:18 33.923836 -118.554427 265 5501ft 297kts
03-May-18 14:19 33.918016 -118.645500 271 8938ft 263kts
03-May-18 14:20 33.917531 -118.733829 271 11770ft 293kts
03-May-18 14:21 33.917162 -118.831107 273 14149ft 294kts
03-May-18 14:22 33.920083 -118.934275 274 17168ft 333kts
03-May-18 14:23 33.943878 -119.050030 301 20216ft 384kts
03-May-18 14:24 33.998962 -119.162779 304 23138ft 400kts
03-May-18 14:25 34.087107 -119.250544 325 25190ft 418kts
03-May-18 14:26 34.178298 -119.330626 325 28039ft 410kts
03-May-18 14:27 34.269784 -119.409956 325 30617ft 404kts
03-May-18 14:28 34.361067 -119.489046 324 32798ft 411kts
03-May-18 14:29 34.448836 -119.579945 315 34796ft 420kts
03-May-18 14:30 34.530850 -119.679982 315 36770ft 425kts
03-May-18 14:31 34.613938 -119.782313 314 38151ft 424kts
03-May-18 14:32 34.696854 -119.884895 314 38229ft 430kts
03-May-18 14:33 34.780820 -119.989130 314 38228ft 435kts
03-May-18 14:34 34.865767 -120.094921 314 38237ft 439kts
03-May-18 14:35 34.950500 -120.200781 314 38253ft 435kts
03-May-18 14:36 35.034437 -120.305976 314 38260ft 432kts
03-May-18 14:37 35.118839 -120.407560 318 38260ft 429kts
03-May-18 14:38 35.206632 -120.506017 318 38247ft 429kts
03-May-18 14:39 35.294334 -120.604605 318 38245ft 429kts
03-May-18 14:40 35.381341 -120.702701 317 38248ft 429kts
03-May-18 14:41 35.468902 -120.801718 317 38237ft 429kts
03-May-18 14:42 35.562833 -120.891476 322 38228ft 429kts
03-May-18 14:43 35.657377 -120.979570 322 38227ft 428kts
03-May-18 14:44 35.752344 -121.068138 322 38226ft 428kts
03-May-18 14:45 35.844424 -121.154241 322 36381ft 410kts
03-May-18 14:46 35.935270 -121.239457 322 33398ft 414kts
03-May-18 14:46 36.012728 -121.312339 323 30846ft 425kts
03-May-18 14:47 36.107756 -121.395100 328 28832ft 418kts
03-May-18 14:48 36.202226 -121.469060 329 26859ft 400kts
03-May-18 14:49 36.294237 -121.541117 329 24863ft 387kts
03-May-18 14:50 36.383600 -121.611254 329 22451ft 375kts
03-May-18 14:51 36.470003 -121.679239 329 20420ft 365kts
03-May-18 14:52 36.554516 -121.745944 329 18609ft 361kts
03-May-18 14:53 36.637848 -121.811915 329 16356ft 344kts
03-May-18 14:54 36.714565 -121.872813 329 15043ft 309kts
03-May-18 14:55 36.789089 -121.905621 347 14024ft 288kts
03-May-18 14:56 36.872484 -121.930114 348 11537ft 324kts
03-May-18 14:57 36.959073 -121.956217 344 10014ft 306kts
03-May-18 14:58 37.041004 -121.987863 342 8195ft 295kts
03-May-18 14:59 37.112377 -122.015703 343 8020ft 273kts
03-May-18 15:00 37.180928 -122.042521 343 8014ft 260kts
03-May-18 15:01 37.248071 -122.068830 343 8016ft 259kts
03-May-18 15:02 37.314066 -122.094771 343 6560ft 250kts
03-May-18 15:03 37.368246 -122.116133 343 5342ft 223kts
03-May-18 15:04 37.412699 -122.131583 345 4174ft 244kts
03-May-18 15:05 37.453710 -122.145598 345 3122ft 239kts
03-May-18 15:06 37.504027 -122.162242 345 2500ft 173kts
03-May-18 15:07 37.545135 -122.184320 298 2387ft 169kts
03-May-18 15:08 37.563009 -122.236797 296 1482ft 157kts
03-May-18 15:09 37.583274 -122.284723 298 1424ft 156kts
03-May-18 15:10 37.601878 -122.329723 298 568ft 139kts
03-May-18 15:11 37.617661 -122.367081 299 19ft 78kts
03-May-18 15:12 37.624158 -122.381273 347 18ft 27kts
03-May-18 15:13 37.626879 -122.383376 319 18ft 10kts

Navigation Log

Ident Type
Flight plan parsing failed, navigation log unavailable